sensor_id;sensor_type;location;lat;lon;timestamp;P1;durP1;ratioP1;P2;durP2;ratioP2
4504;SDS011;2265;48.794;9.520;2022-11-20T00:00:00;4.20;;;2.17;;
4504;SDS011;2265;48.794;9.520;2022-11-20T00:02:27;2.23;;;1.80;;
4504;SDS011;2265;48.794;9.520;2022-11-20T00:04:54;3.80;;;2.40;;
4504;SDS011;2265;48.794;9.520;2022-11-20T00:07:21;2.77;;;1.87;;
4504;SDS011;2265;48.794;9.520;2022-11-20T00:09:51;3.27;;;2.33;;
4504;SDS011;2265;48.794;9.520;2022-11-20T00:12:18;2.33;;;1.97;;
4504;SDS011;2265;48.794;9.520;2022-11-20T00:14:45;3.10;;;2.13;;
4504;SDS011;2265;48.794;9.520;2022-11-20T00:17:14;2.10;;;1.90;;
4504;SDS011;2265;48.794;9.520;2022-11-20T00:19:41;3.13;;;2.33;;
4504;SDS011;2265;48.794;9.520;2022-11-20T00:22:08;3.23;;;2.40;;
4504;SDS011;2265;48.794;9.520;2022-11-20T00:24:35;3.03;;;2.10;;
4504;SDS011;2265;48.794;9.520;2022-11-20T00:27:03;2.37;;;2.07;;
4504;SDS011;2265;48.794;9.520;2022-11-20T00:29:30;3.53;;;2.20;;
4504;SDS011;2265;48.794;9.520;2022-11-20T00:31:58;4.90;;;1.90;;
4504;SDS011;2265;48.794;9.520;2022-11-20T00:34:27;5.40;;;2.53;;
4504;SDS011;2265;48.794;9.520;2022-11-20T00:36:54;4.03;;;2.20;;
4504;SDS011;2265;48.794;9.520;2022-11-20T00:39:30;2.87;;;2.10;;
4504;SDS011;2265;48.794;9.520;2022-11-20T00:41:57;3.10;;;2.00;;
4504;SDS011;2265;48.794;9.520;2022-11-20T00:44:24;2.90;;;1.77;;
4504;SDS011;2265;48.794;9.520;2022-11-20T00:46:51;4.60;;;2.43;;
4504;SDS011;2265;48.794;9.520;2022-11-20T00:49:18;3.90;;;2.10;;
4504;SDS011;2265;48.794;9.520;2022-11-20T00:51:47;3.03;;;2.17;;
4504;SDS011;2265;48.794;9.520;2022-11-20T00:54:14;4.47;;;2.37;;
4504;SDS011;2265;48.794;9.520;2022-11-20T00:56:41;3.10;;;2.23;;
4504;SDS011;2265;48.794;9.520;2022-11-20T00:59:08;4.67;;;2.00;;
4504;SDS011;2265;48.794;9.520;2022-11-20T01:01:36;2.80;;;2.07;;
4504;SDS011;2265;48.794;9.520;2022-11-20T01:04:04;4.50;;;2.07;;
4504;SDS011;2265;48.794;9.520;2022-11-20T01:06:31;3.87;;;2.00;;
4504;SDS011;2265;48.794;9.520;2022-11-20T01:09:04;4.67;;;2.50;;
4504;SDS011;2265;48.794;9.520;2022-11-20T01:11:36;8.60;;;2.90;;
4504;SDS011;2265;48.794;9.520;2022-11-20T01:14:06;2.70;;;1.60;;
4504;SDS011;2265;48.794;9.520;2022-11-20T01:16:36;2.20;;;2.10;;
4504;SDS011;2265;48.794;9.520;2022-11-20T01:19:05;6.27;;;2.30;;
4504;SDS011;2265;48.794;9.520;2022-11-20T01:21:34;3.77;;;2.00;;
4504;SDS011;2265;48.794;9.520;2022-11-20T01:24:04;2.33;;;1.83;;
4504;SDS011;2265;48.794;9.520;2022-11-20T01:26:34;2.80;;;2.00;;
4504;SDS011;2265;48.794;9.520;2022-11-20T01:29:04;3.90;;;2.50;;
4504;SDS011;2265;48.794;9.520;2022-11-20T01:31:33;3.63;;;1.63;;
4504;SDS011;2265;48.794;9.520;2022-11-20T01:34:02;5.80;;;1.90;;
4504;SDS011;2265;48.794;9.520;2022-11-20T01:36:32;3.90;;;2.33;;
4504;SDS011;2265;48.794;9.520;2022-11-20T01:39:04;4.10;;;2.37;;
4504;SDS011;2265;48.794;9.520;2022-11-20T01:41:34;4.03;;;2.10;;
4504;SDS011;2265;48.794;9.520;2022-11-20T01:44:20;3.23;;;1.80;;
4504;SDS011;2265;48.794;9.520;2022-11-20T01:46:51;3.87;;;2.30;;
4504;SDS011;2265;48.794;9.520;2022-11-20T01:49:23;2.07;;;1.60;;
4504;SDS011;2265;48.794;9.520;2022-11-20T01:51:55;6.50;;;2.57;;
4504;SDS011;2265;48.794;9.520;2022-11-20T01:54:29;2.27;;;2.07;;
4504;SDS011;2265;48.794;9.520;2022-11-20T01:57:02;3.67;;;1.77;;
4504;SDS011;2265;48.794;9.520;2022-11-20T01:59:31;6.60;;;2.80;;
4504;SDS011;2265;48.794;9.520;2022-11-20T02:01:59;2.47;;;1.73;;
4504;SDS011;2265;48.794;9.520;2022-11-20T02:04:27;4.93;;;2.10;;
4504;SDS011;2265;48.794;9.520;2022-11-20T02:06:55;2.13;;;1.83;;
4504;SDS011;2265;48.794;9.520;2022-11-20T02:09:26;4.03;;;2.37;;
4504;SDS011;2265;48.794;9.520;2022-11-20T02:11:54;2.07;;;1.30;;
4504;SDS011;2265;48.794;9.520;2022-11-20T02:14:22;2.63;;;1.57;;
4504;SDS011;2265;48.794;9.520;2022-11-20T02:16:52;2.93;;;2.00;;
4504;SDS011;2265;48.794;9.520;2022-11-20T02:19:22;3.10;;;1.73;;
4504;SDS011;2265;48.794;9.520;2022-11-20T02:21:55;1.60;;;1.43;;
4504;SDS011;2265;48.794;9.520;2022-11-20T02:24:28;1.83;;;1.10;;
4504;SDS011;2265;48.794;9.520;2022-11-20T02:26:57;1.73;;;1.60;;
4504;SDS011;2265;48.794;9.520;2022-11-20T02:29:32;1.60;;;1.30;;
4504;SDS011;2265;48.794;9.520;2022-11-20T02:32:05;3.50;;;1.93;;
4504;SDS011;2265;48.794;9.520;2022-11-20T02:34:32;2.53;;;1.60;;
4504;SDS011;2265;48.794;9.520;2022-11-20T02:36:59;3.13;;;1.30;;
4504;SDS011;2265;48.794;9.520;2022-11-20T02:39:28;1.57;;;1.50;;
4504;SDS011;2265;48.794;9.520;2022-11-20T02:41:55;1.20;;;1.00;;
4504;SDS011;2265;48.794;9.520;2022-11-20T02:44:23;1.77;;;1.53;;
4504;SDS011;2265;48.794;9.520;2022-11-20T02:46:50;1.53;;;1.10;;
4504;SDS011;2265;48.794;9.520;2022-11-20T02:49:19;2.13;;;1.63;;
4504;SDS011;2265;48.794;9.520;2022-11-20T02:51:46;2.70;;;1.60;;
4504;SDS011;2265;48.794;9.520;2022-11-20T02:54:13;1.90;;;1.33;;
4504;SDS011;2265;48.794;9.520;2022-11-20T02:56:42;2.37;;;1.73;;
4504;SDS011;2265;48.794;9.520;2022-11-20T02:59:09;1.97;;;1.40;;
4504;SDS011;2265;48.794;9.520;2022-11-20T03:01:36;1.60;;;1.57;;
4504;SDS011;2265;48.794;9.520;2022-11-20T03:04:03;1.30;;;1.23;;
4504;SDS011;2265;48.794;9.520;2022-11-20T03:06:31;1.67;;;1.60;;
4504;SDS011;2265;48.794;9.520;2022-11-20T03:08:58;3.93;;;1.80;;
4504;SDS011;2265;48.794;9.520;2022-11-20T03:11:26;7.00;;;1.80;;
4504;SDS011;2265;48.794;9.520;2022-11-20T03:13:55;1.97;;;1.30;;
4504;SDS011;2265;48.794;9.520;2022-11-20T03:16:22;1.80;;;1.43;;
4504;SDS011;2265;48.794;9.520;2022-11-20T03:18:51;2.60;;;1.70;;
4504;SDS011;2265;48.794;9.520;2022-11-20T03:21:19;1.97;;;1.43;;
4504;SDS011;2265;48.794;9.520;2022-11-20T03:23:48;1.70;;;1.40;;
4504;SDS011;2265;48.794;9.520;2022-11-20T03:26:16;2.13;;;1.63;;
4504;SDS011;2265;48.794;9.520;2022-11-20T03:28:47;2.33;;;1.63;;
4504;SDS011;2265;48.794;9.520;2022-11-20T03:31:17;2.53;;;1.30;;
4504;SDS011;2265;48.794;9.520;2022-11-20T03:33:45;2.03;;;1.40;;
4504;SDS011;2265;48.794;9.520;2022-11-20T03:36:13;1.40;;;1.30;;
4504;SDS011;2265;48.794;9.520;2022-11-20T03:38:41;1.70;;;1.60;;
4504;SDS011;2265;48.794;9.520;2022-11-20T03:41:09;2.37;;;1.47;;
4504;SDS011;2265;48.794;9.520;2022-11-20T03:43:37;2.03;;;1.40;;
4504;SDS011;2265;48.794;9.520;2022-11-20T03:46:05;3.50;;;1.70;;
4504;SDS011;2265;48.794;9.520;2022-11-20T03:48:34;1.73;;;1.50;;
4504;SDS011;2265;48.794;9.520;2022-11-20T03:51:09;1.40;;;1.20;;
4504;SDS011;2265;48.794;9.520;2022-11-20T03:53:37;2.50;;;1.83;;
4504;SDS011;2265;48.794;9.520;2022-11-20T03:56:05;1.47;;;1.20;;
4504;SDS011;2265;48.794;9.520;2022-11-20T03:58:32;1.30;;;1.30;;
4504;SDS011;2265;48.794;9.520;2022-11-20T04:01:04;2.97;;;1.87;;
4504;SDS011;2265;48.794;9.520;2022-11-20T04:03:35;2.70;;;1.50;;
4504;SDS011;2265;48.794;9.520;2022-11-20T04:06:03;1.30;;;1.30;;
4504;SDS011;2265;48.794;9.520;2022-11-20T04:08:32;3.73;;;1.77;;
4504;SDS011;2265;48.794;9.520;2022-11-20T04:11:09;1.80;;;1.43;;
4504;SDS011;2265;48.794;9.520;2022-11-20T04:13:38;2.40;;;1.40;;
4504;SDS011;2265;48.794;9.520;2022-11-20T04:16:06;1.50;;;1.50;;
4504;SDS011;2265;48.794;9.520;2022-11-20T04:18:35;1.60;;;1.33;;
4504;SDS011;2265;48.794;9.520;2022-11-20T04:21:03;1.40;;;1.40;;
4504;SDS011;2265;48.794;9.520;2022-11-20T04:23:31;1.70;;;1.40;;
4504;SDS011;2265;48.794;9.520;2022-11-20T04:26:00;1.90;;;1.40;;
4504;SDS011;2265;48.794;9.520;2022-11-20T04:28:28;1.20;;;1.10;;
4504;SDS011;2265;48.794;9.520;2022-11-20T04:31:01;1.30;;;1.20;;
4504;SDS011;2265;48.794;9.520;2022-11-20T04:33:29;1.93;;;1.27;;
4504;SDS011;2265;48.794;9.520;2022-11-20T04:36:01;2.03;;;1.40;;
4504;SDS011;2265;48.794;9.520;2022-11-20T04:38:29;5.23;;;1.73;;
4504;SDS011;2265;48.794;9.520;2022-11-20T04:40:57;1.77;;;1.37;;
4504;SDS011;2265;48.794;9.520;2022-11-20T04:43:24;4.70;;;2.60;;
4504;SDS011;2265;48.794;9.520;2022-11-20T04:45:52;1.40;;;1.10;;
4504;SDS011;2265;48.794;9.520;2022-11-20T04:48:20;1.70;;;1.43;;
4504;SDS011;2265;48.794;9.520;2022-11-20T04:50:47;1.77;;;1.37;;
4504;SDS011;2265;48.794;9.520;2022-11-20T04:53:15;2.27;;;1.50;;
4504;SDS011;2265;48.794;9.520;2022-11-20T04:55:43;1.77;;;1.30;;
4504;SDS011;2265;48.794;9.520;2022-11-20T04:58:10;2.20;;;1.23;;
4504;SDS011;2265;48.794;9.520;2022-11-20T05:00:37;1.47;;;1.33;;
4504;SDS011;2265;48.794;9.520;2022-11-20T05:03:04;2.33;;;1.40;;
4504;SDS011;2265;48.794;9.520;2022-11-20T05:05:35;1.60;;;1.20;;
4504;SDS011;2265;48.794;9.520;2022-11-20T05:08:02;3.07;;;1.57;;
4504;SDS011;2265;48.794;9.520;2022-11-20T05:10:31;1.53;;;1.37;;
4504;SDS011;2265;48.794;9.520;2022-11-20T05:12:58;4.50;;;1.77;;
4504;SDS011;2265;48.794;9.520;2022-11-20T05:15:25;2.47;;;1.67;;
4504;SDS011;2265;48.794;9.520;2022-11-20T05:17:52;1.40;;;1.20;;
4504;SDS011;2265;48.794;9.520;2022-11-20T05:20:19;1.57;;;1.30;;
4504;SDS011;2265;48.794;9.520;2022-11-20T05:22:46;2.37;;;1.40;;
4504;SDS011;2265;48.794;9.520;2022-11-20T05:25:14;4.37;;;1.70;;
4504;SDS011;2265;48.794;9.520;2022-11-20T05:27:42;1.47;;;1.30;;
4504;SDS011;2265;48.794;9.520;2022-11-20T05:30:10;2.23;;;1.50;;
4504;SDS011;2265;48.794;9.520;2022-11-20T05:32:38;4.10;;;1.60;;
4504;SDS011;2265;48.794;9.520;2022-11-20T05:35:05;2.10;;;1.30;;
4504;SDS011;2265;48.794;9.520;2022-11-20T05:37:33;1.47;;;1.43;;
4504;SDS011;2265;48.794;9.520;2022-11-20T05:40:00;2.33;;;1.60;;
4504;SDS011;2265;48.794;9.520;2022-11-20T05:42:29;4.77;;;1.63;;
4504;SDS011;2265;48.794;9.520;2022-11-20T05:44:58;2.33;;;1.57;;
4504;SDS011;2265;48.794;9.520;2022-11-20T05:47:26;3.40;;;1.50;;
4504;SDS011;2265;48.794;9.520;2022-11-20T05:49:54;1.60;;;1.23;;
4504;SDS011;2265;48.794;9.520;2022-11-20T05:52:21;2.10;;;1.30;;
4504;SDS011;2265;48.794;9.520;2022-11-20T05:54:48;1.40;;;1.10;;
4504;SDS011;2265;48.794;9.520;2022-11-20T05:57:16;1.50;;;1.37;;
4504;SDS011;2265;48.794;9.520;2022-11-20T05:59:43;3.03;;;1.87;;
4504;SDS011;2265;48.794;9.520;2022-11-20T06:02:11;2.37;;;1.20;;
4504;SDS011;2265;48.794;9.520;2022-11-20T06:04:39;1.40;;;1.20;;
4504;SDS011;2265;48.794;9.520;2022-11-20T06:07:06;2.37;;;1.63;;
4504;SDS011;2265;48.794;9.520;2022-11-20T06:09:34;2.07;;;1.40;;
4504;SDS011;2265;48.794;9.520;2022-11-20T06:12:01;1.80;;;1.40;;
4504;SDS011;2265;48.794;9.520;2022-11-20T06:14:28;1.40;;;1.20;;
4504;SDS011;2265;48.794;9.520;2022-11-20T06:16:55;1.83;;;1.20;;
4504;SDS011;2265;48.794;9.520;2022-11-20T06:19:23;1.50;;;1.17;;
4504;SDS011;2265;48.794;9.520;2022-11-20T06:21:50;1.50;;;1.10;;
4504;SDS011;2265;48.794;9.520;2022-11-20T06:24:18;1.70;;;1.57;;
4504;SDS011;2265;48.794;9.520;2022-11-20T06:26:45;3.73;;;1.40;;
4504;SDS011;2265;48.794;9.520;2022-11-20T06:29:15;1.20;;;1.00;;
4504;SDS011;2265;48.794;9.520;2022-11-20T06:31:42;1.37;;;1.17;;
4504;SDS011;2265;48.794;9.520;2022-11-20T06:34:11;1.57;;;1.33;;
4504;SDS011;2265;48.794;9.520;2022-11-20T06:36:39;2.50;;;1.97;;
4504;SDS011;2265;48.794;9.520;2022-11-20T06:39:06;1.50;;;1.40;;
4504;SDS011;2265;48.794;9.520;2022-11-20T06:41:33;1.47;;;1.17;;
4504;SDS011;2265;48.794;9.520;2022-11-20T06:44:01;1.77;;;1.60;;
4504;SDS011;2265;48.794;9.520;2022-11-20T06:46:29;1.40;;;1.40;;
4504;SDS011;2265;48.794;9.520;2022-11-20T06:48:57;1.50;;;1.30;;
4504;SDS011;2265;48.794;9.520;2022-11-20T06:51:24;2.07;;;1.27;;
4504;SDS011;2265;48.794;9.520;2022-11-20T06:53:52;1.63;;;1.30;;
4504;SDS011;2265;48.794;9.520;2022-11-20T06:56:20;2.27;;;1.90;;
4504;SDS011;2265;48.794;9.520;2022-11-20T06:58:47;1.93;;;1.67;;
4504;SDS011;2265;48.794;9.520;2022-11-20T07:01:14;2.27;;;1.70;;
4504;SDS011;2265;48.794;9.520;2022-11-20T07:03:42;2.30;;;1.60;;
4504;SDS011;2265;48.794;9.520;2022-11-20T07:06:09;1.20;;;1.13;;
4504;SDS011;2265;48.794;9.520;2022-11-20T07:08:36;2.40;;;1.57;;
4504;SDS011;2265;48.794;9.520;2022-11-20T07:11:05;1.30;;;1.10;;
4504;SDS011;2265;48.794;9.520;2022-11-20T07:13:33;1.93;;;1.90;;
4504;SDS011;2265;48.794;9.520;2022-11-20T07:16:01;3.50;;;1.50;;
4504;SDS011;2265;48.794;9.520;2022-11-20T07:18:29;1.93;;;1.47;;
4504;SDS011;2265;48.794;9.520;2022-11-20T07:20:59;1.20;;;1.17;;
4504;SDS011;2265;48.794;9.520;2022-11-20T07:23:27;1.50;;;1.40;;
4504;SDS011;2265;48.794;9.520;2022-11-20T07:25:54;1.30;;;1.20;;
4504;SDS011;2265;48.794;9.520;2022-11-20T07:28:22;1.77;;;1.57;;
4504;SDS011;2265;48.794;9.520;2022-11-20T07:30:50;3.43;;;1.30;;
4504;SDS011;2265;48.794;9.520;2022-11-20T07:33:17;1.43;;;1.30;;
4504;SDS011;2265;48.794;9.520;2022-11-20T07:35:45;1.70;;;1.40;;
4504;SDS011;2265;48.794;9.520;2022-11-20T07:38:12;1.20;;;1.10;;
4504;SDS011;2265;48.794;9.520;2022-11-20T07:40:39;1.60;;;1.20;;
4504;SDS011;2265;48.794;9.520;2022-11-20T07:43:06;2.37;;;1.40;;
4504;SDS011;2265;48.794;9.520;2022-11-20T07:45:34;1.50;;;1.20;;
4504;SDS011;2265;48.794;9.520;2022-11-20T07:48:03;1.47;;;1.30;;
4504;SDS011;2265;48.794;9.520;2022-11-20T07:50:30;2.30;;;1.63;;
4504;SDS011;2265;48.794;9.520;2022-11-20T07:53:02;1.60;;;1.27;;
4504;SDS011;2265;48.794;9.520;2022-11-20T07:55:29;2.60;;;1.57;;
4504;SDS011;2265;48.794;9.520;2022-11-20T07:57:57;1.50;;;1.30;;
4504;SDS011;2265;48.794;9.520;2022-11-20T08:00:24;2.70;;;1.30;;
4504;SDS011;2265;48.794;9.520;2022-11-20T08:02:53;1.80;;;1.20;;
4504;SDS011;2265;48.794;9.520;2022-11-20T08:05:21;1.73;;;1.30;;
4504;SDS011;2265;48.794;9.520;2022-11-20T08:07:48;1.87;;;1.23;;
4504;SDS011;2265;48.794;9.520;2022-11-20T08:10:15;1.30;;;1.10;;
4504;SDS011;2265;48.794;9.520;2022-11-20T08:12:46;1.50;;;1.20;;
4504;SDS011;2265;48.794;9.520;2022-11-20T08:15:31;1.20;;;1.07;;
4504;SDS011;2265;48.794;9.520;2022-11-20T08:18:00;1.20;;;1.00;;
4504;SDS011;2265;48.794;9.520;2022-11-20T08:20:28;1.70;;;1.30;;
4504;SDS011;2265;48.794;9.520;2022-11-20T08:22:58;1.50;;;1.23;;
4504;SDS011;2265;48.794;9.520;2022-11-20T08:25:26;3.87;;;1.90;;
4504;SDS011;2265;48.794;9.520;2022-11-20T08:27:53;3.43;;;1.60;;
4504;SDS011;2265;48.794;9.520;2022-11-20T08:30:20;1.70;;;1.10;;
4504;SDS011;2265;48.794;9.520;2022-11-20T08:32:47;1.63;;;1.10;;
4504;SDS011;2265;48.794;9.520;2022-11-20T08:35:15;2.20;;;1.50;;
4504;SDS011;2265;48.794;9.520;2022-11-20T08:37:45;2.70;;;1.27;;
4504;SDS011;2265;48.794;9.520;2022-11-20T08:40:13;2.90;;;1.63;;
4504;SDS011;2265;48.794;9.520;2022-11-20T08:42:45;1.90;;;1.50;;
4504;SDS011;2265;48.794;9.520;2022-11-20T08:45:13;1.97;;;1.50;;
4504;SDS011;2265;48.794;9.520;2022-11-20T08:47:41;1.53;;;1.20;;
4504;SDS011;2265;48.794;9.520;2022-11-20T08:50:08;1.40;;;1.20;;
4504;SDS011;2265;48.794;9.520;2022-11-20T08:52:37;2.10;;;1.77;;
4504;SDS011;2265;48.794;9.520;2022-11-20T08:55:05;2.93;;;1.53;;
4504;SDS011;2265;48.794;9.520;2022-11-20T08:57:36;1.50;;;1.20;;
4504;SDS011;2265;48.794;9.520;2022-11-20T09:00:05;1.53;;;1.40;;
4504;SDS011;2265;48.794;9.520;2022-11-20T09:02:34;1.30;;;1.20;;
4504;SDS011;2265;48.794;9.520;2022-11-20T09:05:02;2.07;;;1.37;;
4504;SDS011;2265;48.794;9.520;2022-11-20T09:07:32;1.80;;;1.17;;
4504;SDS011;2265;48.794;9.520;2022-11-20T09:10:00;1.67;;;1.50;;
4504;SDS011;2265;48.794;9.520;2022-11-20T09:12:27;2.27;;;1.70;;
4504;SDS011;2265;48.794;9.520;2022-11-20T09:14:54;1.80;;;1.37;;
4504;SDS011;2265;48.794;9.520;2022-11-20T09:17:21;1.50;;;1.20;;
4504;SDS011;2265;48.794;9.520;2022-11-20T09:19:48;6.40;;;1.50;;
4504;SDS011;2265;48.794;9.520;2022-11-20T09:22:15;1.30;;;1.30;;
4504;SDS011;2265;48.794;9.520;2022-11-20T09:24:42;1.70;;;1.30;;
4504;SDS011;2265;48.794;9.520;2022-11-20T09:27:11;1.20;;;1.10;;
4504;SDS011;2265;48.794;9.520;2022-11-20T09:29:42;1.53;;;1.37;;
4504;SDS011;2265;48.794;9.520;2022-11-20T09:32:09;2.27;;;1.30;;
4504;SDS011;2265;48.794;9.520;2022-11-20T09:34:36;2.10;;;1.37;;
4504;SDS011;2265;48.794;9.520;2022-11-20T09:37:04;1.67;;;1.30;;
4504;SDS011;2265;48.794;9.520;2022-11-20T09:39:31;1.97;;;1.43;;
4504;SDS011;2265;48.794;9.520;2022-11-20T09:42:03;1.77;;;1.30;;
4504;SDS011;2265;48.794;9.520;2022-11-20T09:44:53;1.40;;;1.00;;
4504;SDS011;2265;48.794;9.520;2022-11-20T09:47:47;1.20;;;1.10;;
4504;SDS011;2265;48.794;9.520;2022-11-20T09:50:35;1.60;;;1.30;;
4504;SDS011;2265;48.794;9.520;2022-11-20T09:53:08;1.70;;;1.40;;
4504;SDS011;2265;48.794;9.520;2022-11-20T09:55:39;1.50;;;1.10;;
4504;SDS011;2265;48.794;9.520;2022-11-20T09:58:12;3.80;;;1.60;;
4504;SDS011;2265;48.794;9.520;2022-11-20T10:00:46;1.30;;;1.00;;
4504;SDS011;2265;48.794;9.520;2022-11-20T10:03:16;1.67;;;1.10;;
4504;SDS011;2265;48.794;9.520;2022-11-20T10:05:48;1.20;;;1.10;;
4504;SDS011;2265;48.794;9.520;2022-11-20T10:08:21;1.20;;;1.00;;
4504;SDS011;2265;48.794;9.520;2022-11-20T10:10:52;1.60;;;1.17;;
4504;SDS011;2265;48.794;9.520;2022-11-20T10:13:34;1.10;;;1.00;;
4504;SDS011;2265;48.794;9.520;2022-11-20T10:16:16;2.27;;;1.20;;
4504;SDS011;2265;48.794;9.520;2022-11-20T10:18:59;1.30;;;1.10;;
4504;SDS011;2265;48.794;9.520;2022-11-20T10:21:35;1.53;;;1.20;;
4504;SDS011;2265;48.794;9.520;2022-11-20T10:24:24;1.20;;;1.10;;
4504;SDS011;2265;48.794;9.520;2022-11-20T10:27:05;1.50;;;1.30;;
4504;SDS011;2265;48.794;9.520;2022-11-20T10:29:39;1.20;;;1.10;;
4504;SDS011;2265;48.794;9.520;2022-11-20T10:32:08;1.20;;;1.00;;
4504;SDS011;2265;48.794;9.520;2022-11-20T10:34:44;1.20;;;1.10;;
4504;SDS011;2265;48.794;9.520;2022-11-20T10:37:17;7.43;;;1.33;;
4504;SDS011;2265;48.794;9.520;2022-11-20T10:39:50;1.20;;;1.00;;
4504;SDS011;2265;48.794;9.520;2022-11-20T10:42:24;1.50;;;1.30;;
4504;SDS011;2265;48.794;9.520;2022-11-20T10:45:01;1.20;;;1.03;;
4504;SDS011;2265;48.794;9.520;2022-11-20T10:47:37;1.30;;;1.30;;
4504;SDS011;2265;48.794;9.520;2022-11-20T10:50:05;1.37;;;1.23;;
4504;SDS011;2265;48.794;9.520;2022-11-20T10:52:39;1.30;;;1.10;;
4504;SDS011;2265;48.794;9.520;2022-11-20T10:55:19;1.30;;;1.20;;
4504;SDS011;2265;48.794;9.520;2022-11-20T10:57:57;1.20;;;1.10;;
4504;SDS011;2265;48.794;9.520;2022-11-20T11:00:33;1.30;;;1.03;;
4504;SDS011;2265;48.794;9.520;2022-11-20T11:03:00;1.20;;;1.00;;
4504;SDS011;2265;48.794;9.520;2022-11-20T11:05:33;1.30;;;1.10;;
4504;SDS011;2265;48.794;9.520;2022-11-20T11:08:04;1.60;;;1.17;;
4504;SDS011;2265;48.794;9.520;2022-11-20T11:10:39;1.20;;;0.90;;
4504;SDS011;2265;48.794;9.520;2022-11-20T11:13:18;1.40;;;1.30;;
4504;SDS011;2265;48.794;9.520;2022-11-20T11:15:48;1.40;;;1.10;;
4504;SDS011;2265;48.794;9.520;2022-11-20T11:18:22;1.10;;;1.00;;
4504;SDS011;2265;48.794;9.520;2022-11-20T11:20:51;1.10;;;0.90;;
4504;SDS011;2265;48.794;9.520;2022-11-20T11:23:26;2.20;;;1.10;;
4504;SDS011;2265;48.794;9.520;2022-11-20T11:25:58;1.20;;;1.00;;
4504;SDS011;2265;48.794;9.520;2022-11-20T11:28:27;1.10;;;1.00;;
4504;SDS011;2265;48.794;9.520;2022-11-20T11:30:55;1.20;;;1.00;;
4504;SDS011;2265;48.794;9.520;2022-11-20T11:33:23;1.27;;;1.10;;
4504;SDS011;2265;48.794;9.520;2022-11-20T11:35:52;1.10;;;1.00;;
4504;SDS011;2265;48.794;9.520;2022-11-20T11:38:23;1.30;;;1.30;;
4504;SDS011;2265;48.794;9.520;2022-11-20T11:40:55;1.20;;;1.10;;
4504;SDS011;2265;48.794;9.520;2022-11-20T11:43:24;1.30;;;1.20;;
4504;SDS011;2265;48.794;9.520;2022-11-20T11:46:23;1.10;;;1.00;;
4504;SDS011;2265;48.794;9.520;2022-11-20T11:49:00;1.10;;;0.90;;
4504;SDS011;2265;48.794;9.520;2022-11-20T11:51:30;1.10;;;1.00;;
4504;SDS011;2265;48.794;9.520;2022-11-20T11:54:00;1.40;;;1.03;;
4504;SDS011;2265;48.794;9.520;2022-11-20T11:56:35;1.73;;;1.00;;
4504;SDS011;2265;48.794;9.520;2022-11-20T11:59:04;1.47;;;1.00;;
4504;SDS011;2265;48.794;9.520;2022-11-20T12:01:41;1.60;;;1.30;;
4504;SDS011;2265;48.794;9.520;2022-11-20T12:04:14;2.03;;;1.20;;
4504;SDS011;2265;48.794;9.520;2022-11-20T12:06:48;1.10;;;1.00;;
4504;SDS011;2265;48.794;9.520;2022-11-20T12:09:20;1.30;;;1.20;;
4504;SDS011;2265;48.794;9.520;2022-11-20T12:11:55;3.80;;;1.40;;
4504;SDS011;2265;48.794;9.520;2022-11-20T12:14:32;2.10;;;1.30;;
4504;SDS011;2265;48.794;9.520;2022-11-20T12:17:04;1.40;;;1.30;;
4504;SDS011;2265;48.794;9.520;2022-11-20T12:19:35;1.63;;;1.33;;
4504;SDS011;2265;48.794;9.520;2022-11-20T12:22:04;1.30;;;1.13;;
4504;SDS011;2265;48.794;9.520;2022-11-20T12:24:44;1.83;;;1.10;;
4504;SDS011;2265;48.794;9.520;2022-11-20T12:30:11;1.20;;;1.10;;
4504;SDS011;2265;48.794;9.520;2022-11-20T12:32:47;1.53;;;1.20;;
4504;SDS011;2265;48.794;9.520;2022-11-20T12:35:37;2.00;;;1.20;;
4504;SDS011;2265;48.794;9.520;2022-11-20T12:41:20;1.63;;;1.30;;
4504;SDS011;2265;48.794;9.520;2022-11-20T12:44:18;1.33;;;1.10;;
4504;SDS011;2265;48.794;9.520;2022-11-20T12:47:12;1.77;;;1.27;;
4504;SDS011;2265;48.794;9.520;2022-11-20T12:49:45;1.30;;;1.10;;
4504;SDS011;2265;48.794;9.520;2022-11-20T12:52:24;1.33;;;1.20;;
4504;SDS011;2265;48.794;9.520;2022-11-20T12:55:16;2.00;;;1.50;;
4504;SDS011;2265;48.794;9.520;2022-11-20T12:57:50;1.67;;;1.30;;
4504;SDS011;2265;48.794;9.520;2022-11-20T13:00:21;1.30;;;1.03;;
4504;SDS011;2265;48.794;9.520;2022-11-20T13:06:00;1.60;;;1.37;;
4504;SDS011;2265;48.794;9.520;2022-11-20T13:08:38;2.23;;;1.50;;
4504;SDS011;2265;48.794;9.520;2022-11-20T13:11:09;1.70;;;1.23;;
4504;SDS011;2265;48.794;9.520;2022-11-20T13:13:44;1.47;;;1.20;;
4504;SDS011;2265;48.794;9.520;2022-11-20T13:16:24;2.03;;;1.20;;
4504;SDS011;2265;48.794;9.520;2022-11-20T13:18:57;1.20;;;1.00;;
4504;SDS011;2265;48.794;9.520;2022-11-20T13:21:36;1.60;;;1.23;;
4504;SDS011;2265;48.794;9.520;2022-11-20T13:24:04;1.30;;;1.10;;
4504;SDS011;2265;48.794;9.520;2022-11-20T13:26:32;1.70;;;1.37;;
4504;SDS011;2265;48.794;9.520;2022-11-20T13:29:00;1.47;;;1.20;;
4504;SDS011;2265;48.794;9.520;2022-11-20T13:31:34;1.30;;;1.20;;
4504;SDS011;2265;48.794;9.520;2022-11-20T13:34:05;1.43;;;1.13;;
4504;SDS011;2265;48.794;9.520;2022-11-20T13:36:33;1.33;;;1.10;;
4504;SDS011;2265;48.794;9.520;2022-11-20T13:39:02;1.40;;;1.10;;
4504;SDS011;2265;48.794;9.520;2022-11-20T13:41:30;1.20;;;1.10;;
4504;SDS011;2265;48.794;9.520;2022-11-20T13:44:09;4.03;;;1.20;;
4504;SDS011;2265;48.794;9.520;2022-11-20T13:46:40;1.57;;;1.10;;
4504;SDS011;2265;48.794;9.520;2022-11-20T13:49:10;1.47;;;1.20;;
4504;SDS011;2265;48.794;9.520;2022-11-20T13:51:45;1.20;;;1.00;;
4504;SDS011;2265;48.794;9.520;2022-11-20T13:57:36;1.53;;;1.10;;
4504;SDS011;2265;48.794;9.520;2022-11-20T14:00:16;1.40;;;1.10;;
4504;SDS011;2265;48.794;9.520;2022-11-20T14:02:46;1.40;;;1.17;;
4504;SDS011;2265;48.794;9.520;2022-11-20T14:05:25;1.60;;;1.43;;
4504;SDS011;2265;48.794;9.520;2022-11-20T14:07:54;1.20;;;1.13;;
4504;SDS011;2265;48.794;9.520;2022-11-20T14:10:23;1.50;;;1.10;;
4504;SDS011;2265;48.794;9.520;2022-11-20T14:12:58;1.20;;;1.17;;
4504;SDS011;2265;48.794;9.520;2022-11-20T14:15:35;1.40;;;1.10;;
4504;SDS011;2265;48.794;9.520;2022-11-20T16:30:39;1.40;;;1.13;;
4504;SDS011;2265;48.794;9.520;2022-11-20T16:33:08;2.43;;;1.63;;
4504;SDS011;2265;48.794;9.520;2022-11-20T16:35:37;1.30;;;1.10;;
4504;SDS011;2265;48.794;9.520;2022-11-20T16:38:04;3.77;;;1.40;;
4504;SDS011;2265;48.794;9.520;2022-11-20T16:40:32;1.43;;;1.13;;
4504;SDS011;2265;48.794;9.520;2022-11-20T16:43:01;1.40;;;1.30;;
4504;SDS011;2265;48.794;9.520;2022-11-20T16:45:34;1.30;;;1.10;;
4504;SDS011;2265;48.794;9.520;2022-11-20T16:48:12;2.40;;;1.50;;
4504;SDS011;2265;48.794;9.520;2022-11-20T16:50:46;1.50;;;1.30;;
4504;SDS011;2265;48.794;9.520;2022-11-20T16:53:15;1.83;;;1.30;;
4504;SDS011;2265;48.794;9.520;2022-11-20T16:55:42;1.93;;;1.40;;
4504;SDS011;2265;48.794;9.520;2022-11-20T16:58:10;3.27;;;1.23;;
4504;SDS011;2265;48.794;9.520;2022-11-20T17:00:37;1.20;;;1.10;;
4504;SDS011;2265;48.794;9.520;2022-11-20T17:03:06;1.77;;;1.20;;
4504;SDS011;2265;48.794;9.520;2022-11-20T17:05:33;1.87;;;1.10;;
4504;SDS011;2265;48.794;9.520;2022-11-20T17:08:01;1.87;;;1.30;;
4504;SDS011;2265;48.794;9.520;2022-11-20T17:10:29;2.23;;;1.80;;
4504;SDS011;2265;48.794;9.520;2022-11-20T17:12:56;2.13;;;1.67;;
4504;SDS011;2265;48.794;9.520;2022-11-20T17:15:23;1.70;;;1.17;;
4504;SDS011;2265;48.794;9.520;2022-11-20T17:17:50;1.30;;;1.20;;
4504;SDS011;2265;48.794;9.520;2022-11-20T17:20:18;2.30;;;1.60;;
4504;SDS011;2265;48.794;9.520;2022-11-20T17:22:49;3.20;;;2.20;;
4504;SDS011;2265;48.794;9.520;2022-11-20T17:25:17;2.63;;;2.23;;
4504;SDS011;2265;48.794;9.520;2022-11-20T17:27:44;1.67;;;1.40;;
4504;SDS011;2265;48.794;9.520;2022-11-20T17:30:11;1.87;;;1.83;;
4504;SDS011;2265;48.794;9.520;2022-11-20T17:32:38;2.07;;;1.40;;
4504;SDS011;2265;48.794;9.520;2022-11-20T17:35:09;1.53;;;1.23;;
4504;SDS011;2265;48.794;9.520;2022-11-20T17:37:38;2.33;;;1.70;;
4504;SDS011;2265;48.794;9.520;2022-11-20T17:40:05;2.67;;;1.57;;
4504;SDS011;2265;48.794;9.520;2022-11-20T17:42:33;2.03;;;1.70;;
4504;SDS011;2265;48.794;9.520;2022-11-20T17:45:01;2.53;;;1.97;;
4504;SDS011;2265;48.794;9.520;2022-11-20T17:47:28;2.00;;;1.60;;
4504;SDS011;2265;48.794;9.520;2022-11-20T17:50:03;2.50;;;1.37;;
4504;SDS011;2265;48.794;9.520;2022-11-20T17:52:30;1.90;;;1.50;;
4504;SDS011;2265;48.794;9.520;2022-11-20T17:54:58;1.20;;;1.20;;
4504;SDS011;2265;48.794;9.520;2022-11-20T17:57:25;1.40;;;1.20;;